ムンバイ の空港の天気 - METARとTAF

チャットラパティー・シヴァージー国際空港 ( VABB / BOM ) - インド ムンバイ
飛行場実況気象(Metar)
観測時間06/18 05:00 IST (06/17 23:30 UTC)
風向・風速南 4m/s
視程3000m
天気現象煙霧
少しの雲 雲底高度 370m
全天の4割程度の雲 雲底高度 610m
全天の8割程度の雲 雲底高度 3050m
気温29℃
湿度84%
気圧1004hPa
METARVABB 172330Z 19008KT 3000 HZ FEW012 SCT020 BKN100 29/26 Q1004 TEMPO 1500 SHRA
過去の天気等 Google飛行場航空写真 Wunderground天気予報

過去48時間のMETAR

飛行場予報(TAF)
発表時間: 6/18 04:30 IST (6/17 23:00 UTC)
予報対象時間: 18日5時 IST ~ 18日14時 IST
風向・風速南南西 5m/s
視程2500m
天気現象弱い雨 もや
少しの雲 雲底高度 550m
全天の4割程度の雲 雲底高度 760m
少しの塔状積雲 雲底高度 760m
全天の8割程度の雲 雲底高度 3050m
18日5時 IST ~ 18日14時 IST に一時的に
視程1500m
天気現象雨 しゅう雨
全天の4割程度の雲 雲底高度 300m
少しの積乱雲 雲底高度 910m
全天を覆う雲 雲底高度 2440m
18日9時 IST ~ 18日11時 IST に徐々に
風向・風速南西 5m/s 瞬間風速 10m/s
視程3000m
天気現象弱い雨 煙霧
TAF VABB 172300Z 1800/1809 20010KT 2500 -RA BR FEW018 SCT025 FEW025TCU BKN100
TEMPO 1800/1809 1500 RA SHRA SCT010 FEW030CB OVC080
BECMG 1804/1806 23010G20KT 3000 -RA HZ